Time;durP1;ratioP1;P1;durP2;ratioP2;P2;SDS_P1;SDS_P2;PMS_P1;PMS_P2;Temp;Humidity;BMP_temperature;BMP_pressure;BME280_temperature;BME280_humidity;BME280_pressure;Samples;Min_cycle;Max_cycle;Signal;HPM_P1;HPM_P2
2021/06/16 00:02:04;;;;;;;0.30;0.30;;;17.50;96.40;;;;;;4430228;32;20188;-59
2021/06/16 00:04:30;;;;;;;0.35;0.35;;;17.30;96.60;;;;;;4431357;32;20065;-58
2021/06/16 00:06:55;;;;;;;0.45;0.45;;;17.50;96.80;;;;;;4432041;32;20065;-57
2021/06/16 00:09:22;;;;;;;5.50;0.65;;;17.40;96.50;;;;;;4429822;32;20070;-58
2021/06/16 00:11:47;;;;;;;0.32;0.30;;;17.40;96.50;;;;;;4415729;32;20077;-58
2021/06/16 00:14:13;;;;;;;0.20;0.20;;;17.40;96.40;;;;;;4426196;32;20161;-57
2021/06/16 00:16:39;;;;;;;0.40;0.40;;;17.40;96.50;;;;;;4430264;32;20099;-55
2021/06/16 00:19:04;;;;;;;0.25;0.25;;;17.30;96.50;;;;;;4431652;32;20081;-55
2021/06/16 00:21:30;;;;;;;1.00;0.62;;;17.20;96.50;;;;;;4431192;32;20115;-58
2021/06/16 00:23:55;;;;;;;0.30;0.30;;;17.10;96.70;;;;;;4430965;32;20066;-58
2021/06/16 00:26:21;;;;;;;1.65;0.47;;;17.10;96.70;;;;;;4431348;32;20408;-58
2021/06/16 00:28:46;;;;;;;0.20;0.20;;;17.10;96.80;;;;;;4429598;32;20130;-57
2021/06/16 00:31:12;;;;;;;0.20;0.20;;;17.10;96.70;;;;;;4429828;32;20080;-55
2021/06/16 00:33:37;;;;;;;1.87;0.43;;;17.00;96.80;;;;;;4430556;32;20419;-56
2021/06/16 00:36:03;;;;;;;0.52;0.52;;;16.90;97.00;;;;;;4430405;32;20595;-58
2021/06/16 00:38:29;;;;;;;1.35;0.68;;;17.00;96.90;;;;;;4430341;32;20069;-56
2021/06/16 00:40:56;;;;;;;0.30;0.30;;;17.00;97.00;;;;;;4440934;32;20077;-57
2021/06/16 00:43:21;;;;;;;0.25;0.25;;;16.90;96.90;;;;;;4445037;32;20382;-55
2021/06/16 00:45:47;;;;;;;0.30;0.30;;;16.80;97.00;;;;;;4446505;32;20069;-58
2021/06/16 00:48:14;;;;;;;0.28;0.28;;;16.80;97.20;;;;;;4444905;32;20503;-57
2021/06/16 00:50:40;;;;;;;0.20;0.20;;;16.80;97.10;;;;;;4446569;32;20501;-58
2021/06/16 00:53:07;;;;;;;0.32;0.32;;;16.80;97.10;;;;;;4445075;32;20269;-57
2021/06/16 00:55:37;;;;;;;0.52;0.50;;;16.80;97.00;;;;;;4447105;32;20077;-57
2021/06/16 00:58:03;;;;;;;0.35;0.35;;;16.80;96.90;;;;;;4431293;32;20454;-57
2021/06/16 01:00:51;;;;;;;1.23;0.82;;;16.70;96.90;;;;;;4445657;32;20077;-57
2021/06/16 01:03:42;;;;;;;0.25;0.25;;;16.70;97.00;;;;;;4434004;32;20093;-58
2021/06/16 01:06:16;;;;;;;0.30;0.30;;;16.60;97.00;;;;;;4445584;32;20065;-57
2021/06/16 01:08:51;;;;;;;0.30;0.30;;;16.60;97.20;;;;;;4444517;32;20092;-58
2021/06/16 01:11:19;;;;;;;0.30;0.30;;;16.60;97.10;;;;;;4445942;32;20060;-56
2021/06/16 01:13:50;;;;;;;0.40;0.40;;;16.70;97.10;;;;;;4435751;32;20081;-58
2021/06/16 01:16:27;;;;;;;0.30;0.30;;;16.60;97.00;;;;;;4431147;32;20069;-57
2021/06/16 01:18:57;;;;;;;0.20;0.20;;;16.60;96.90;;;;;;4428981;32;20069;-58
2021/06/16 01:21:23;;;;;;;0.40;0.40;;;16.60;96.90;;;;;;4429377;32;20061;-59
2021/06/16 01:24:05;;;;;;;1.95;0.30;;;16.60;97.00;;;;;;4429268;32;20451;-58
2021/06/16 01:26:34;;;;;;;0.20;0.20;;;16.50;97.00;;;;;;4430601;32;20061;-57
2021/06/16 01:29:07;;;;;;;0.40;0.40;;;16.40;97.10;;;;;;4433100;32;20068;-58
2021/06/16 01:31:33;;;;;;;1.65;0.35;;;16.50;97.20;;;;;;4445833;32;20077;-59
2021/06/16 01:34:00;;;;;;;0.30;0.30;;;16.40;97.10;;;;;;4445881;32;20080;-58
2021/06/16 01:36:26;;;;;;;0.40;0.40;;;16.50;96.90;;;;;;4446135;32;20402;-59
2021/06/16 01:38:53;;;;;;;0.98;0.30;;;16.50;97.10;;;;;;4445869;32;20126;-59
2021/06/16 01:41:20;;;;;;;0.20;0.20;;;16.40;97.00;;;;;;4446060;32;20081;-55
2021/06/16 01:43:47;;;;;;;0.30;0.30;;;16.40;96.90;;;;;;4444896;32;20189;-58
2021/06/16 01:46:13;;;;;;;0.62;0.52;;;16.30;96.90;;;;;;4446235;32;20060;-55
2021/06/16 01:48:40;;;;;;;1.48;0.50;;;16.30;97.00;;;;;;4445498;32;20163;-55
2021/06/16 01:51:08;;;;;;;0.20;0.20;;;16.20;97.00;;;;;;4446099;32;20061;-57
2021/06/16 01:53:35;;;;;;;0.20;0.20;;;16.20;97.00;;;;;;4432337;32;20065;-55
2021/06/16 01:56:01;;;;;;;0.20;0.20;;;16.30;96.90;;;;;;4444705;32;20559;-54
2021/06/16 01:58:27;;;;;;;0.40;0.37;;;16.30;96.70;;;;;;4444830;32;20128;-57
2021/06/16 02:00:53;;;;;;;0.62;0.30;;;16.30;96.90;;;;;;4445500;32;20127;-58
2021/06/16 02:03:20;;;;;;;0.30;0.30;;;16.20;97.00;;;;;;4444897;32;20089;-58
2021/06/16 02:05:46;;;;;;;0.60;0.60;;;16.10;97.00;;;;;;4445389;32;20073;-57
2021/06/16 02:08:15;;;;;;;0.35;0.30;;;16.00;97.20;;;;;;4445427;32;20072;-58
2021/06/16 02:10:46;;;;;;;0.20;0.20;;;16.00;97.30;;;;;;4445409;32;20069;-57
2021/06/16 02:13:14;;;;;;;0.30;0.30;;;15.90;97.40;;;;;;4443924;32;20077;-58
2021/06/16 02:15:54;;;;;;;0.20;0.20;;;16.00;97.30;;;;;;4444800;32;20396;-58
2021/06/16 02:18:30;;;;;;;0.30;0.30;;;16.00;97.20;;;;;;4444904;32;20077;-56
2021/06/16 02:20:56;;;;;;;0.20;0.20;;;15.90;97.20;;;;;;4444123;32;20124;-58
2021/06/16 02:23:23;;;;;;;0.32;0.32;;;15.90;97.40;;;;;;4445766;32;20061;-58
2021/06/16 02:25:49;;;;;;;0.30;0.30;;;15.80;97.40;;;;;;4447146;32;20065;-57
2021/06/16 02:28:14;;;;;;;0.50;0.50;;;15.80;97.40;;;;;;4445235;32;20403;-59
2021/06/16 02:30:40;;;;;;;0.30;0.30;;;15.70;97.60;;;;;;4447548;32;20068;-58
2021/06/16 02:33:05;;;;;;;0.40;0.40;;;15.70;97.60;;;;;;4448666;32;20505;-54
2021/06/16 02:35:31;;;;;;;0.40;0.30;;;15.70;97.60;;;;;;4447530;32;20090;-55
2021/06/16 02:38:04;;;;;;;0.43;0.43;;;15.70;97.60;;;;;;4447072;32;20077;-58
2021/06/16 02:40:30;;;;;;;9.82;0.62;;;15.60;97.60;;;;;;4447619;32;20116;-56
2021/06/16 02:42:56;;;;;;;0.50;0.50;;;15.60;97.70;;;;;;4447248;32;20089;-56
2021/06/16 02:45:26;;;;;;;0.30;0.30;;;15.50;97.90;;;;;;4447957;32;20069;-57
2021/06/16 02:47:53;;;;;;;0.30;0.30;;;15.50;98.00;;;;;;4447900;32;20502;-57
2021/06/16 02:50:25;;;;;;;5.12;2.08;;;15.50;98.00;;;;;;4447084;32;20081;-58
2021/06/16 02:52:51;;;;;;;0.40;0.40;;;15.50;98.10;;;;;;4434295;32;20065;-58
2021/06/16 02:55:17;;;;;;;0.37;0.37;;;15.40;98.20;;;;;;4446998;32;20420;-57
2021/06/16 02:57:45;;;;;;;0.62;0.55;;;15.50;98.20;;;;;;4445754;32;20080;-58
2021/06/16 03:00:14;;;;;;;6.35;0.85;;;15.50;98.00;;;;;;4445725;32;20123;-59
2021/06/16 03:02:44;;;;;;;0.32;0.32;;;15.50;98.10;;;;;;4446202;32;20149;-57
2021/06/16 03:05:13;;;;;;;0.40;0.40;;;15.40;98.20;;;;;;4447687;32;20526;-57
2021/06/16 03:07:40;;;;;;;1.83;0.50;;;15.40;98.30;;;;;;4434108;32;20467;-58
2021/06/16 03:10:06;;;;;;;0.35;0.35;;;15.30;98.50;;;;;;4446771;32;20532;-59
2021/06/16 03:12:34;;;;;;;0.20;0.20;;;15.30;98.50;;;;;;4445156;32;20060;-59
2021/06/16 03:15:00;;;;;;;0.40;0.40;;;15.40;98.40;;;;;;4431910;32;20078;-59
2021/06/16 03:17:27;;;;;;;1.85;0.30;;;15.40;98.50;;;;;;4430980;32;20127;-56
2021/06/16 03:19:55;;;;;;;0.52;0.52;;;15.40;98.30;;;;;;4430537;32;20119;-58
2021/06/16 03:22:23;;;;;;;0.20;0.20;;;15.40;98.40;;;;;;4430912;32;20073;-55
2021/06/16 03:24:50;;;;;;;1.12;0.65;;;15.40;98.30;;;;;;4432003;32;20123;-57
2021/06/16 03:27:16;;;;;;;0.28;0.28;;;15.40;98.40;;;;;;4430789;32;20125;-57
2021/06/16 03:29:41;;;;;;;0.40;0.40;;;15.50;98.20;;;;;;4431479;32;20073;-59
2021/06/16 03:32:08;;;;;;;0.47;0.30;;;15.40;98.30;;;;;;4431447;32;20061;-56
2021/06/16 03:34:36;;;;;;;0.10;0.10;;;15.40;98.40;;;;;;4429847;32;20061;-54
2021/06/16 03:37:04;;;;;;;3.90;0.35;;;15.40;98.40;;;;;;4430559;32;20062;-56
2021/06/16 03:39:31;;;;;;;0.30;0.30;;;15.50;98.50;;;;;;4429274;32;20069;-58
2021/06/16 03:41:57;;;;;;;0.70;0.55;;;15.50;98.30;;;;;;4431436;32;20553;-59
2021/06/16 03:44:24;;;;;;;0.85;0.40;;;15.50;98.20;;;;;;4430415;32;20061;-55
2021/06/16 03:46:52;;;;;;;1.67;0.52;;;15.50;98.10;;;;;;4430185;32;20066;-57
2021/06/16 03:49:19;;;;;;;0.10;0.10;;;15.50;98.10;;;;;;4430501;32;20056;-58
2021/06/16 03:51:45;;;;;;;0.57;0.55;;;15.60;98.40;;;;;;4429994;32;20185;-58
2021/06/16 03:54:12;;;;;;;0.55;0.55;;;15.60;97.90;;;;;;4428862;32;20074;-57
2021/06/16 03:56:39;;;;;;;0.30;0.30;;;15.50;98.00;;;;;;4429479;32;20435;-59
2021/06/16 03:59:05;;;;;;;0.80;0.40;;;15.60;97.90;;;;;;4431088;32;20514;-58
2021/06/16 04:01:31;;;;;;;0.15;0.15;;;15.60;98.10;;;;;;4430203;32;20464;-56
2021/06/16 04:03:56;;;;;;;2.90;0.47;;;15.70;97.80;;;;;;4430282;32;20068;-57
2021/06/16 04:06:22;;;;;;;0.30;0.30;;;15.60;97.70;;;;;;4430719;32;20065;-54
2021/06/16 04:08:50;;;;;;;0.50;0.50;;;15.70;97.70;;;;;;4429485;32;20090;-57
2021/06/16 04:11:15;;;;;;;0.30;0.30;;;15.70;97.80;;;;;;4430392;32;20077;-58
2021/06/16 04:13:41;;;;;;;0.37;0.37;;;15.70;97.90;;;;;;4437246;32;20468;-59
2021/06/16 04:16:08;;;;;;;0.20;0.20;;;15.70;97.80;;;;;;4445925;32;20065;-55
2021/06/16 04:18:35;;;;;;;0.50;0.50;;;15.70;97.90;;;;;;4445446;32;20069;-56
2021/06/16 04:21:01;;;;;;;0.30;0.30;;;15.70;98.00;;;;;;4440869;32;20415;-58
2021/06/16 04:23:27;;;;;;;0.47;0.32;;;15.80;98.10;;;;;;4448094;32;20061;-57
2021/06/16 04:25:52;;;;;;;0.30;0.30;;;15.90;97.80;;;;;;4458296;32;20077;-59
2021/06/16 04:28:18;;;;;;;0.37;0.37;;;16.00;97.90;;;;;;4430744;32;20081;-56
2021/06/16 04:30:43;;;;;;;0.20;0.20;;;16.00;97.10;;;;;;4428827;32;20534;-58
2021/06/16 04:33:09;;;;;;;0.30;0.30;;;16.00;97.50;;;;;;4430455;32;20069;-57
2021/06/16 04:35:34;;;;;;;0.20;0.20;;;16.00;97.50;;;;;;4430748;32;20534;-58
2021/06/16 04:38:00;;;;;;;0.30;0.30;;;16.00;97.30;;;;;;4428917;32;20387;-59
2021/06/16 04:40:25;;;;;;;0.20;0.20;;;16.00;97.50;;;;;;4436545;32;20094;-58
2021/06/16 04:42:51;;;;;;;0.20;0.20;;;16.00;97.40;;;;;;4444393;32;20332;-59
2021/06/16 04:45:17;;;;;;;0.22;0.22;;;16.10;97.20;;;;;;4443176;32;20077;-57
2021/06/16 04:47:42;;;;;;;0.30;0.30;;;16.20;96.80;;;;;;4445221;32;20068;-55
2021/06/16 04:50:10;;;;;;;0.52;0.52;;;16.10;97.00;;;;;;4445166;32;20076;-59
2021/06/16 04:52:35;;;;;;;0.30;0.30;;;16.20;97.60;;;;;;4441450;32;20053;-58
2021/06/16 04:55:01;;;;;;;1.02;0.85;;;16.20;97.40;;;;;;4444354;32;20146;-55
2021/06/16 04:57:26;;;;;;;0.20;0.20;;;16.20;97.30;;;;;;4444744;32;20461;-58
2021/06/16 04:59:52;;;;;;;0.30;0.30;;;16.30;96.70;;;;;;4433097;32;20072;-56
2021/06/16 05:02:17;;;;;;;6.68;1.10;;;16.40;96.60;;;;;;4433057;32;20062;-57
2021/06/16 05:04:43;;;;;;;0.20;0.20;;;16.30;96.80;;;;;;4439811;32;20093;-57
2021/06/16 05:07:08;;;;;;;0.20;0.20;;;16.30;96.60;;;;;;4445437;32;20124;-56
2021/06/16 05:09:34;;;;;;;0.32;0.32;;;16.30;96.80;;;;;;4433460;32;20069;-59
2021/06/16 05:11:59;;;;;;;0.30;0.30;;;16.40;96.50;;;;;;4437625;32;20070;-58
2021/06/16 05:14:25;;;;;;;0.20;0.20;;;16.40;97.00;;;;;;4435935;32;20065;-59
2021/06/16 05:16:53;;;;;;;0.20;0.20;;;16.50;96.80;;;;;;4423859;32;20388;-56
2021/06/16 05:19:21;;;;;;;0.30;0.30;;;16.60;96.80;;;;;;4430692;32;20126;-57
2021/06/16 05:21:47;;;;;;;0.37;0.37;;;16.70;96.40;;;;;;4445042;32;20073;-58
2021/06/16 05:24:13;;;;;;;0.30;0.30;;;16.80;96.30;;;;;;4437177;32;20483;-56
2021/06/16 05:26:39;;;;;;;0.25;0.25;;;16.90;95.90;;;;;;4411954;32;20105;-55
2021/06/16 05:29:06;;;;;;;1.52;0.32;;;17.00;96.00;;;;;;4432710;32;20073;-58
2021/06/16 05:31:32;;;;;;;0.20;0.20;;;17.10;95.20;;;;;;4418038;32;20084;-58
2021/06/16 05:33:57;;;;;;;0.30;0.30;;;17.20;95.30;;;;;;4433779;32;20658;-56
2021/06/16 05:36:24;;;;;;;0.20;0.20;;;17.30;94.90;;;;;;4430201;32;20184;-55
2021/06/16 05:38:50;;;;;;;1.08;0.85;;;17.40;94.90;;;;;;4432991;32;20081;-59
2021/06/16 05:41:16;;;;;;;0.20;0.20;;;17.40;93.90;;;;;;4434888;32;20144;-58
2021/06/16 05:43:41;;;;;;;0.98;0.82;;;17.50;94.40;;;;;;4434315;32;20250;-57
2021/06/16 05:46:07;;;;;;;2.37;0.30;;;17.70;94.20;;;;;;4435899;32;20138;-58
2021/06/16 05:48:32;;;;;;;0.32;0.32;;;17.80;94.30;;;;;;4434699;32;20104;-57
2021/06/16 05:50:58;;;;;;;0.28;0.28;;;17.90;93.80;;;;;;4436054;32;20092;-58
2021/06/16 05:53:23;;;;;;;0.22;0.22;;;17.90;94.10;;;;;;4432336;32;20109;-59
2021/06/16 05:55:49;;;;;;;0.35;0.35;;;18.10;92.60;;;;;;4432901;32;20143;-59
2021/06/16 05:58:14;;;;;;;0.90;0.50;;;18.20;92.70;;;;;;4435800;32;20119;-57
2021/06/16 06:00:40;;;;;;;0.40;0.37;;;18.30;92.20;;;;;;4436700;32;20085;-58
2021/06/16 06:03:05;;;;;;;0.43;0.40;;;18.50;91.30;;;;;;4432957;32;20081;-59
2021/06/16 06:05:31;;;;;;;0.30;0.30;;;18.40;91.10;;;;;;4426898;32;20111;-59
2021/06/16 06:07:57;;;;;;;2.42;0.60;;;18.50;91.70;;;;;;4430418;32;20166;-54
2021/06/16 06:10:22;;;;;;;0.73;0.50;;;18.60;91.90;;;;;;4430780;32;20102;-56
2021/06/16 06:12:48;;;;;;;0.30;0.30;;;18.70;90.70;;;;;;4431165;32;20185;-56
2021/06/16 06:15:15;;;;;;;0.30;0.30;;;18.60;90.60;;;;;;4430719;32;20119;-57
2021/06/16 06:17:41;;;;;;;0.30;0.30;;;18.60;90.80;;;;;;4428436;32;20861;-57
2021/06/16 06:20:08;;;;;;;0.22;0.20;;;18.60;90.90;;;;;;4422878;32;20335;-58
2021/06/16 06:22:33;;;;;;;0.30;0.30;;;18.60;90.90;;;;;;4428948;32;20089;-58
2021/06/16 06:24:59;;;;;;;0.30;0.30;;;18.70;90.90;;;;;;4434680;32;20065;-58
2021/06/16 06:27:25;;;;;;;0.30;0.30;;;18.80;90.80;;;;;;4433336;32;20101;-58
2021/06/16 06:29:50;;;;;;;0.30;0.30;;;18.90;90.70;;;;;;4438661;32;20065;-57
2021/06/16 06:32:16;;;;;;;0.28;0.28;;;18.90;90.80;;;;;;4436717;32;20073;-58
2021/06/16 06:34:41;;;;;;;1.23;0.47;;;19.00;91.00;;;;;;4437129;32;20533;-59
2021/06/16 06:37:07;;;;;;;0.20;0.20;;;19.10;90.60;;;;;;4435232;32;20408;-59
2021/06/16 06:39:32;;;;;;;0.35;0.35;;;19.20;90.50;;;;;;4431685;32;20132;-59
2021/06/16 06:41:58;;;;;;;17.98;1.30;;;19.30;90.40;;;;;;4432260;32;20069;-58
2021/06/16 06:44:23;;;;;;;0.20;0.20;;;19.30;90.50;;;;;;4432933;32;20338;-58
2021/06/16 06:46:49;;;;;;;0.20;0.20;;;19.40;90.10;;;;;;4437938;32;20061;-57
2021/06/16 06:49:14;;;;;;;0.28;0.28;;;19.40;90.30;;;;;;4432987;32;20076;-58
2021/06/16 06:51:40;;;;;;;0.30;0.30;;;19.50;90.40;;;;;;4438685;32;20078;-59
2021/06/16 06:54:08;;;;;;;0.20;0.20;;;19.60;90.40;;;;;;4436789;32;20691;-57
2021/06/16 06:56:38;;;;;;;0.15;0.15;;;19.70;90.30;;;;;;4437398;32;20553;-56
2021/06/16 06:59:04;;;;;;;0.28;0.28;;;19.80;90.00;;;;;;4432752;32;20093;-57
2021/06/16 07:01:30;;;;;;;0.47;0.47;;;19.70;90.40;;;;;;4435954;32;20105;-58
2021/06/16 07:04:00;;;;;;;0.30;0.30;;;19.70;90.30;;;;;;4438594;32;20735;-56
2021/06/16 07:06:27;;;;;;;0.30;0.30;;;19.80;90.30;;;;;;4433487;32;20088;-57
2021/06/16 07:08:52;;;;;;;0.40;0.40;;;19.90;90.10;;;;;;4437329;32;20137;-58
2021/06/16 07:11:18;;;;;;;0.32;0.32;;;19.90;90.40;;;;;;4436054;32;20168;-58
2021/06/16 07:13:43;;;;;;;0.22;0.22;;;20.10;90.30;;;;;;4432278;32;20053;-59
2021/06/16 07:16:08;;;;;;;0.30;0.30;;;20.20;90.10;;;;;;4434843;32;20076;-58
2021/06/16 07:18:34;;;;;;;0.30;0.30;;;20.30;90.20;;;;;;4430938;32;20095;-56
2021/06/16 07:20:59;;;;;;;0.85;0.57;;;20.40;90.00;;;;;;4436579;32;20460;-57
2021/06/16 07:23:26;;;;;;;0.20;0.20;;;20.60;90.10;;;;;;4439445;32;20089;-57
2021/06/16 07:25:51;;;;;;;0.20;0.20;;;20.70;90.20;;;;;;4436060;32;20078;-58
2021/06/16 07:28:17;;;;;;;0.25;0.25;;;20.70;89.10;;;;;;4431990;32;20120;-57
2021/06/16 07:30:42;;;;;;;0.20;0.20;;;20.80;89.60;;;;;;4435631;32;20074;-58
2021/06/16 07:33:10;;;;;;;0.60;0.60;;;20.90;90.00;;;;;;4433784;32;20077;-57
2021/06/16 07:35:35;;;;;;;0.30;0.30;;;21.00;90.10;;;;;;4433887;32;20084;-58
2021/06/16 07:38:01;;;;;;;0.40;0.40;;;21.20;89.80;;;;;;4430673;32;20154;-58
2021/06/16 07:40:26;;;;;;;0.30;0.30;;;21.40;90.00;;;;;;4436146;32;20536;-57
2021/06/16 07:42:52;;;;;;;0.40;0.40;;;21.60;89.20;;;;;;4434922;32;20058;-58
2021/06/16 07:45:17;;;;;;;0.20;0.20;;;21.70;88.70;;;;;;4434739;32;20442;-58
2021/06/16 07:47:43;;;;;;;0.43;0.43;;;21.80;89.10;;;;;;4434516;32;20081;-57
2021/06/16 07:50:09;;;;;;;3.00;0.82;;;22.00;88.60;;;;;;4432695;32;20120;-56
2021/06/16 07:52:34;;;;;;;0.20;0.20;;;22.10;89.00;;;;;;4438271;32;20065;-59
2021/06/16 07:55:00;;;;;;;0.75;0.37;;;22.20;90.00;;;;;;4426153;32;20105;-58
2021/06/16 07:57:26;;;;;;;0.40;0.40;;;22.20;89.40;;;;;;4432618;32;20221;-55
2021/06/16 07:59:51;;;;;;;0.47;0.47;;;22.30;89.40;;;;;;4434632;32;20105;-56
2021/06/16 08:02:17;;;;;;;0.20;0.20;;;22.50;88.90;;;;;;4431266;32;20139;-58
2021/06/16 08:04:43;;;;;;;0.73;0.73;;;22.50;87.40;;;;;;4435504;32;20403;-58
2021/06/16 08:07:10;;;;;;;0.20;0.20;;;22.50;88.80;;;;;;4433185;32;20073;-58
2021/06/16 08:09:37;;;;;;;0.22;0.22;;;22.70;89.20;;;;;;4430268;32;20089;-58
2021/06/16 08:12:03;;;;;;;0.37;0.37;;;22.90;88.60;;;;;;4425755;32;20494;-57
2021/06/16 08:14:29;;;;;;;0.28;0.25;;;23.00;89.10;;;;;;4427397;32;20089;-57
2021/06/16 08:16:54;;;;;;;0.20;0.20;;;23.10;87.90;;;;;;4423381;32;20061;-57
2021/06/16 08:19:20;;;;;;;0.62;0.45;;;23.20;86.90;;;;;;4424376;32;20156;-57
2021/06/16 08:21:45;;;;;;;1.37;0.75;;;23.20;86.80;;;;;;4425086;32;20142;-55
2021/06/16 08:24:11;;;;;;;0.30;0.30;;;23.40;88.00;;;;;;4424829;32;20069;-57
2021/06/16 08:26:37;;;;;;;0.45;0.45;;;23.40;87.70;;;;;;4426802;32;20573;-58
2021/06/16 08:29:02;;;;;;;0.30;0.30;;;23.50;86.40;;;;;;4424422;32;20278;-57
2021/06/16 08:31:28;;;;;;;0.80;0.75;;;23.50;86.70;;;;;;4424556;32;20085;-57
2021/06/16 08:33:53;;;;;;;0.10;0.10;;;23.50;86.90;;;;;;4429853;32;20079;-54
2021/06/16 08:36:20;;;;;;;0.68;0.45;;;23.60;86.10;;;;;;4424521;32;20127;-58
2021/06/16 08:38:45;;;;;;;0.20;0.20;;;23.70;86.00;;;;;;4425889;32;20080;-57
2021/06/16 08:41:11;;;;;;;0.25;0.25;;;23.80;85.30;;;;;;4428895;32;20113;-57
2021/06/16 08:43:42;;;;;;;0.20;0.20;;;23.70;86.20;;;;;;4427094;32;20080;-58
2021/06/16 08:46:12;;;;;;;0.52;0.40;;;23.80;86.20;;;;;;4430767;32;20065;-57
2021/06/16 08:48:40;;;;;;;0.30;0.30;;;23.80;85.70;;;;;;4431123;32;20069;-56
2021/06/16 08:51:07;;;;;;;0.20;0.20;;;23.90;85.40;;;;;;4431564;32;20061;-57
2021/06/16 08:53:33;;;;;;;0.20;0.20;;;23.90;85.90;;;;;;4427134;32;20109;-58
2021/06/16 08:55:59;;;;;;;0.10;0.10;;;23.80;85.80;;;;;;4419734;32;20494;-58
2021/06/16 08:58:25;;;;;;;0.28;0.28;;;23.80;85.70;;;;;;4427813;32;20118;-57
2021/06/16 09:00:52;;;;;;;0.30;0.30;;;23.90;86.20;;;;;;4426205;32;20045;-57
2021/06/16 09:03:17;;;;;;;0.20;0.20;;;23.90;85.20;;;;;;4410711;32;20407;-54
2021/06/16 09:05:43;;;;;;;0.35;0.35;;;24.00;85.00;;;;;;4429220;32;20586;-55
2021/06/16 09:08:24;;;;;;;0.20;0.20;;;24.00;84.70;;;;;;4426776;32;20085;-57
2021/06/16 09:10:52;;;;;;;0.30;0.30;;;24.10;85.40;;;;;;4421305;32;20077;-55
2021/06/16 09:13:36;;;;;;;0.20;0.20;;;24.20;84.70;;;;;;4408665;32;20073;-56
2021/06/16 09:16:29;;;;;;;1.35;0.30;;;24.30;84.00;;;;;;4421825;32;20480;-56
2021/06/16 09:18:56;;;;;;;0.20;0.20;;;24.50;83.70;;;;;;4423667;32;20076;-57
2021/06/16 09:21:40;;;;;;;1.65;0.55;;;24.60;83.10;;;;;;4426284;32;20479;-55
2021/06/16 09:24:06;;;;;;;0.88;0.80;;;24.60;82.80;;;;;;4413354;32;20121;-57
2021/06/16 09:26:34;;;;;;;0.65;0.55;;;24.70;83.20;;;;;;4413109;32;20081;-54
2021/06/16 09:29:00;;;;;;;0.30;0.30;;;24.70;80.50;;;;;;4427865;32;20096;-57
2021/06/16 09:31:35;;;;;;;0.52;0.43;;;24.70;80.60;;;;;;4415887;32;20114;-55
2021/06/16 09:34:05;;;;;;;0.20;0.20;;;24.70;80.90;;;;;;4430677;32;20140;-56
2021/06/16 09:36:31;;;;;;;;;;;25.00;80.40;;;;;;4430927;32;20077;-55
2021/06/16 09:39:08;;;;;;;0.30;0.30;;;24.70;79.50;;;;;;4432170;32;19971;-57
2021/06/16 09:41:35;;;;;;;0.30;0.30;;;24.80;79.20;;;;;;4430393;32;73074;-56
2021/06/16 09:44:01;;;;;;;0.17;0.17;;;25.10;78.70;;;;;;4435765;32;20060;-57
2021/06/16 09:46:26;;;;;;;0.20;0.20;;;25.20;79.30;;;;;;4437644;32;20080;-55
2021/06/16 09:48:52;;;;;;;0.37;0.37;;;25.60;78.30;;;;;;4437388;32;20471;-53
2021/06/16 09:51:27;;;;;;;0.20;0.20;;;25.70;75.90;;;;;;4435038;32;20161;-55
2021/06/16 09:53:57;;;;;;;2.83;0.40;;;25.60;74.00;;;;;;4436583;32;20092;-57
2021/06/16 09:56:24;;;;;;;0.20;0.20;;;25.70;75.60;;;;;;4435946;32;20168;-58
2021/06/16 09:58:51;;;;;;;0.20;0.20;;;25.80;74.20;;;;;;4432632;32;20186;-57
2021/06/16 10:01:17;;;;;;;0.15;0.15;;;26.00;72.90;;;;;;4438594;32;20081;-56
2021/06/16 10:03:42;;;;;;;0.35;0.35;;;26.00;73.70;;;;;;4434412;32;20076;-56
2021/06/16 10:06:15;;;;;;;0.65;0.28;;;26.10;72.90;;;;;;4435766;32;20109;-56
2021/06/16 10:08:50;;;;;;;0.17;0.17;;;26.00;73.60;;;;;;4421947;32;20120;-58
2021/06/16 10:11:19;;;;;;;0.20;0.20;;;26.20;73.30;;;;;;4425114;32;20282;-58
2021/06/16 10:13:46;;;;;;;0.30;0.30;;;26.20;72.90;;;;;;4435884;32;20081;-58
2021/06/16 10:16:12;;;;;;;0.20;0.20;;;26.20;72.20;;;;;;4438616;32;20518;-55
2021/06/16 10:18:40;;;;;;;0.20;0.20;;;26.40;72.90;;;;;;4439414;32;20094;-59
2021/06/16 10:21:07;;;;;;;0.10;0.10;;;26.80;73.80;;;;;;4434440;32;20092;-58
2021/06/16 10:23:33;;;;;;;0.93;0.70;;;26.80;71.80;;;;;;4436220;32;20092;-58
2021/06/16 10:26:20;;;;;;;0.43;0.43;;;26.80;71.80;;;;;;4430782;32;20582;-54
2021/06/16 10:28:52;;;;;;;3.62;0.75;;;27.00;70.00;;;;;;4436382;32;20096;-58
2021/06/16 10:31:19;;;;;;;0.75;0.62;;;26.90;70.50;;;;;;4436007;32;20536;-59
2021/06/16 10:33:55;;;;;;;0.28;0.22;;;26.60;71.00;;;;;;4429956;32;20140;-59
2021/06/16 10:36:21;;;;;;;1.37;0.55;;;27.20;72.20;;;;;;4434925;32;20073;-59
2021/06/16 10:39:07;;;;;;;0.30;0.30;;;27.60;68.40;;;;;;4431645;32;20108;-59
2021/06/16 10:41:53;;;;;;;0.90;0.82;;;27.40;68.60;;;;;;4438879;32;20089;-60
2021/06/16 10:44:22;;;;;;;1.77;0.82;;;27.60;68.80;;;;;;4432003;32;20097;-60
2021/06/16 10:46:51;;;;;;;0.22;0.22;;;27.90;67.90;;;;;;4437608;32;20428;-61
2021/06/16 10:50:00;;;;;;;0.10;0.10;;;28.10;66.60;;;;;;4440708;32;20084;-57
2021/06/16 10:52:27;;;;;;;0.22;0.22;;;28.10;67.20;;;;;;4443057;32;20084;-60
2021/06/16 10:54:57;;;;;;;0.13;0.13;;;28.30;66.70;;;;;;4441105;32;20092;-61
2021/06/16 10:57:23;;;;;;;0.25;0.25;;;28.40;66.10;;;;;;4441925;32;20076;-59
2021/06/16 10:59:51;;;;;;;0.00;0.00;;;28.40;66.40;;;;;;4440301;32;20085;-59
2021/06/16 11:02:18;;;;;;;0.20;0.20;;;28.70;66.90;;;;;;4440173;32;20081;-58
2021/06/16 11:04:45;;;;;;;0.13;0.13;;;29.00;65.20;;;;;;4436368;32;20081;-60
2021/06/16 11:07:32;;;;;;;0.95;0.20;;;29.30;65.10;;;;;;4431340;32;20065;-59
2021/06/16 11:10:00;;;;;;;0.28;0.28;;;28.80;63.90;;;;;;4442957;32;20064;-59
2021/06/16 11:12:36;;;;;;;0.50;0.50;;;28.90;66.20;;;;;;4440767;32;20115;-59
2021/06/16 11:15:05;;;;;;;1.67;0.52;;;29.30;65.70;;;;;;4443120;32;20072;-60
2021/06/16 11:17:36;;;;;;;0.13;0.13;;;29.70;63.00;;;;;;4434007;32;20493;-60
2021/06/16 11:20:08;;;;;;;0.10;0.10;;;29.60;63.00;;;;;;4444861;32;20097;-59
2021/06/16 11:22:39;;;;;;;0.32;0.32;;;29.90;62.60;;;;;;4443309;32;20069;-60
2021/06/16 11:25:09;;;;;;;0.22;0.22;;;29.80;62.60;;;;;;4442813;32;20072;-60
2021/06/16 11:27:54;;;;;;;0.52;0.30;;;30.00;62.90;;;;;;4441600;32;20052;-59
2021/06/16 11:30:48;;;;;;;0.10;0.10;;;30.20;63.40;;;;;;4444007;32;20081;-57
2021/06/16 11:33:17;;;;;;;0.15;0.15;;;30.30;61.80;;;;;;4439619;32;20478;-60
2021/06/16 11:35:45;;;;;;;0.15;0.15;;;30.70;60.80;;;;;;4445547;32;20088;-58
2021/06/16 11:38:30;;;;;;;0.20;0.20;;;31.10;61.20;;;;;;4441273;32;20128;-60
2021/06/16 11:41:00;;;;;;;0.00;0.00;;;31.30;60.80;;;;;;4437219;32;20090;-56
2021/06/16 11:43:29;;;;;;;0.20;0.20;;;31.10;59.40;;;;;;4441782;32;20403;-58
2021/06/16 11:45:54;;;;;;;0.55;0.40;;;31.30;59.60;;;;;;4441223;32;20065;-61
2021/06/16 11:48:20;;;;;;;0.08;0.08;;;31.30;59.40;;;;;;4436335;32;20100;-60
2021/06/16 11:50:46;;;;;;;1.30;0.60;;;31.10;59.70;;;;;;4443559;32;20084;-60
2021/06/16 11:53:11;;;;;;;0.40;0.40;;;31.60;58.50;;;;;;4443621;32;20518;-60
2021/06/16 11:55:42;;;;;;;0.25;0.25;;;31.40;59.20;;;;;;4442080;32;20073;-60
2021/06/16 11:58:26;;;;;;;0.10;0.08;;;31.90;58.50;;;;;;4438370;32;20064;-60
2021/06/16 12:01:09;;;;;;;0.20;0.20;;;32.00;57.40;;;;;;4435673;32;20089;-60
2021/06/16 12:03:36;;;;;;;0.60;0.47;;;31.80;57.70;;;;;;4441512;32;20583;-61
2021/06/16 12:06:06;;;;;;;0.10;0.10;;;32.30;57.50;;;;;;4441186;32;20084;-59
2021/06/16 12:08:33;;;;;;;0.60;0.33;;;32.40;56.10;;;;;;4440550;32;20056;-60
2021/06/16 12:10:59;;;;;;;0.13;0.13;;;32.40;57.00;;;;;;4444561;32;20132;-59
2021/06/16 12:13:25;;;;;;;0.20;0.20;;;33.00;55.90;;;;;;4439551;32;20130;-58
2021/06/16 12:15:51;;;;;;;0.08;0.08;;;33.30;54.70;;;;;;4442560;32;20072;-59
2021/06/16 12:18:17;;;;;;;0.10;0.10;;;33.30;54.80;;;;;;4443329;32;20373;-59
2021/06/16 12:20:50;;;;;;;0.10;0.10;;;33.40;55.10;;;;;;4439048;32;20122;-55
2021/06/16 12:23:25;;;;;;;0.10;0.10;;;33.50;54.90;;;;;;4437834;32;20098;-60
2021/06/16 12:26:02;;;;;;;0.20;0.20;;;34.00;54.00;;;;;;4441401;32;20049;-58
2021/06/16 12:28:27;;;;;;;0.20;0.20;;;33.90;54.50;;;;;;4431265;32;20153;-58
2021/06/16 12:30:55;;;;;;;0.00;0.00;;;33.60;53.40;;;;;;4437594;32;20341;-59
2021/06/16 12:33:34;;;;;;;0.20;0.20;;;33.60;53.60;;;;;;4438229;32;20081;-58
2021/06/16 12:36:13;;;;;;;0.10;0.10;;;33.30;54.30;;;;;;4429163;32;20065;-59
2021/06/16 12:38:45;;;;;;;0.10;0.10;;;33.60;54.70;;;;;;4431172;32;20170;-58
2021/06/16 12:41:30;;;;;;;0.15;0.15;;;34.00;54.10;;;;;;4439101;32;20128;-59
2021/06/16 12:44:17;;;;;;;0.03;0.03;;;34.30;53.10;;;;;;4440787;32;20100;-57
2021/06/16 12:46:53;;;;;;;0.17;0.17;;;34.30;53.40;;;;;;4438363;32;20080;-58
2021/06/16 12:49:19;;;;;;;0.10;0.10;;;33.80;53.40;;;;;;4438258;32;20458;-59
2021/06/16 12:51:50;;;;;;;1.50;0.68;;;34.00;53.60;;;;;;4437589;32;20085;-59
2021/06/16 12:54:36;;;;;;;0.35;0.35;;;34.40;53.60;;;;;;4421105;32;20094;-58